Quaker Hill, CT (06375)

7:34 PM EST on March 05, 2015 (GMT -0500)
Smith Cove | Change Station
CLOSE
Current Station
Personal Weather Station
Location: Quaker Hill, CT
Elevation: 25 ft
Nearby Weather Stations

Elev 25 ft 41.40 °N, 72.11 °W | Updated 4 minutes ago

Snow
Snow
22.1 °F
Feels Like 22 °F
N
2.0
Wind Variable Wind from WNW
Gusts 4.0 mph

Today
High -- | Low -- °F
--% Chance of Precip.
Yesterday
High -- | Low -- °F
Precip. -- in
6:17 AM 5:43 PM
Full, 100% visible
Pressure 30.19 in
Visibility 6.0 miles
Clouds Overcast 3800 ft
Windchill 22 °F
Dew Point 20 °F
Humidity 93%
Rainfall in
Snow Depth Not available.
UV 0.0 out of 12
Pollen .50 out of 12
Air Quality Not available.
Flu Activity Not available.
METAR KGON 052356Z 33009KT 6SM -SN OVC038 M06/M08 A3019 RMK AO2 SLP222 P0000 60000 T10561083 11050 21061 50011

More Conditions Fewer Conditions

Pressure 30.19 in
Visibility 6.0 miles
Clouds Overcast 3800 ft
Windchill 22 °F
Dew Point 20 °F
Humidity 93%
Rainfall in
Snow Depth Not available.
UV 0.0 out of 12
Pollen .50 out of 12
Air Quality Not available.
Flu Activity Not available.
METAR KGON 052356Z 33009KT 6SM -SN OVC038 M06/M08 A3019 RMK AO2 SLP222 P0000 60000 T10561083 11050 21061 50011

More Conditions Fewer Conditions

10-Day Weather Forecast

Almanac

Astronomy

Mar. 05, 2015 Rise Set
Actual Time
Civil Twilight
Nautical Twilight
Astronomical Twilight
Moon
Length of Visible Light
Length of Day
Tomorrow will be .
, % of the Moon is Illuminated

Today's Extremes

State Highs State Lows

Community

WunderPhotos

Upload Photos

1,803,071 photos uploaded!

WunderBlogs® & News

Nearby

Air Quality

  Air Quality AQ Index Pollutant
Not available.

Snow Depth

Station Depth Elevation

Earthquake Activity

City Distance Mag. Time & Date
Minimum magnitude displayed is 2.5.

Coastal Water Temperatures

Place Temperature

Nearby Weather Stations

Special Statement
Statement as of 7:01 PM EST on March 05, 2015

The bulk of the accumulating snow has ended across the region. Any
leftover snow will result in little to no accumulation. Many
roads remain snow covered and icy... especially secondary roads.
With temperatures falling into the single digits and lower teens
overnight... untreated surfaces will continue to be treacherous for
travel. Use extra caution if you must travel tonight.




701 PM EST Thu Mar 5 2015

The bulk of the accumulating snow has ended across the region. Any
leftover snow will result in little to no accumulation. Many
roads remain snow covered and icy... especially secondary roads.
With temperatures falling into the single digits and lower teens
overnight... untreated surfaces will continue to be treacherous for
travel. Use extra caution if you must travel tonight.